createdAt,value
2018-07-17T00:00:02.890Z,83.10
2018-07-17T00:02:31.359Z,83.10
2018-07-17T00:04:59.856Z,83.10
2018-07-17T00:07:28.368Z,83.00
2018-07-17T00:09:57.117Z,82.90
2018-07-17T00:12:25.710Z,83.20
2018-07-17T00:14:54.318Z,83.10
2018-07-17T00:17:22.848Z,84.70
2018-07-17T00:19:51.362Z,83.30
2018-07-17T00:22:19.890Z,83.50
2018-07-17T00:24:48.490Z,84.10
2018-07-17T00:27:17.006Z,84.10
2018-07-17T00:29:45.638Z,84.40
2018-07-17T00:32:14.118Z,84.60
2018-07-17T00:34:42.624Z,86.20
2018-07-17T00:37:11.174Z,86.30
2018-07-17T00:39:39.732Z,85.70
2018-07-17T00:42:08.641Z,86.60
2018-07-17T00:44:37.170Z,85.90
2018-07-17T00:47:05.677Z,86.20
2018-07-17T00:49:34.275Z,88.90
2018-07-17T00:52:02.808Z,89.10
2018-07-17T00:54:31.338Z,87.50
2018-07-17T00:56:59.866Z,88.60
2018-07-17T00:59:28.388Z,89.20
2018-07-17T01:02:02.255Z,89.30
2018-07-17T01:04:36.086Z,89.20
2018-07-17T01:07:09.878Z,89.70
2018-07-17T01:09:43.806Z,89.00
2018-07-17T01:12:12.618Z,88.90
2018-07-17T01:14:59.216Z,90.00
2018-07-17T01:17:28.456Z,90.30
2018-07-17T01:19:56.891Z,90.80
2018-07-17T01:22:25.501Z,90.00
2018-07-17T01:24:54.086Z,90.60
2018-07-17T01:27:22.660Z,91.10
2018-07-17T01:29:51.161Z,91.20
2018-07-17T01:32:19.605Z,91.40
2018-07-17T01:34:48.209Z,90.90
2018-07-17T01:37:16.734Z,90.90
2018-07-17T01:39:45.434Z,91.20
2018-07-17T01:42:13.920Z,90.60
2018-07-17T01:44:42.378Z,90.70
2018-07-17T01:47:10.892Z,90.60
2018-07-17T01:49:39.349Z,91.00
2018-07-17T01:52:07.780Z,90.70
2018-07-17T01:54:36.304Z,90.50
2018-07-17T01:57:04.797Z,90.70
2018-07-17T01:59:33.259Z,90.80
2018-07-17T02:02:01.760Z,90.70
2018-07-17T02:04:30.241Z,90.50
2018-07-17T02:06:58.693Z,90.90
2018-07-17T02:09:27.166Z,90.70
2018-07-17T02:11:55.675Z,90.70
2018-07-17T02:14:24.185Z,90.80
2018-07-17T02:16:52.636Z,90.80
2018-07-17T02:19:21.086Z,90.70
2018-07-17T02:21:49.554Z,90.70
2018-07-17T02:24:18.034Z,90.70
2018-07-17T02:26:46.497Z,90.60
2018-07-17T02:29:14.997Z,90.70
2018-07-17T02:31:43.487Z,90.50
2018-07-17T02:34:12.030Z,90.40
2018-07-17T02:36:40.491Z,90.40
2018-07-17T02:39:09.569Z,90.60
2018-07-17T02:41:38.080Z,90.20
2018-07-17T02:44:06.665Z,90.30
2018-07-17T02:46:35.098Z,90.20
2018-07-17T02:49:03.657Z,90.20
2018-07-17T02:51:32.259Z,90.20
2018-07-17T02:54:00.693Z,90.10
2018-07-17T02:56:29.249Z,90.20
2018-07-17T02:58:57.845Z,90.20
2018-07-17T03:01:26.335Z,90.20
2018-07-17T03:03:54.775Z,90.30
2018-07-17T03:06:23.278Z,90.20
2018-07-17T03:08:51.725Z,90.20
2018-07-17T03:11:20.219Z,90.40
2018-07-17T03:13:48.755Z,90.30
2018-07-17T03:16:17.568Z,90.30
2018-07-17T03:18:46.059Z,90.50
2018-07-17T03:21:14.634Z,90.70
2018-07-17T03:23:43.230Z,90.70
2018-07-17T03:26:12.004Z,90.60
2018-07-17T03:28:41.007Z,90.60
2018-07-17T03:31:09.694Z,90.70
2018-07-17T03:33:38.525Z,90.70
2018-07-17T03:36:07.309Z,90.80
2018-07-17T03:41:05.697Z,91.40
2018-07-17T03:43:34.899Z,91.10
2018-07-17T03:47:40.631Z,91.30
2018-07-17T03:50:09.449Z,90.80
2018-07-17T03:52:38.327Z,90.90
2018-07-17T03:55:07.367Z,91.10
2018-07-17T03:57:36.418Z,91.10
2018-07-17T04:00:06.034Z,91.20
2018-07-17T04:02:34.922Z,91.20
2018-07-17T04:05:03.817Z,91.50
2018-07-17T04:08:04.173Z,91.30
2018-07-17T04:10:33.205Z,91.20
2018-07-17T04:13:01.990Z,91.40
2018-07-17T04:15:30.786Z,91.40
2018-07-17T04:17:59.629Z,91.50
2018-07-17T04:20:28.739Z,91.40
2018-07-17T04:22:57.850Z,91.30
2018-07-17T04:25:26.738Z,91.10
2018-07-17T04:27:55.611Z,91.20
2018-07-17T04:30:24.671Z,91.10
2018-07-17T04:32:53.693Z,91.10
2018-07-17T04:35:22.587Z,91.10
2018-07-17T04:37:51.515Z,91.30
2018-07-17T04:40:20.671Z,91.20
2018-07-17T04:42:49.604Z,91.10
2018-07-17T04:45:18.210Z,91.00
2018-07-17T04:47:47.078Z,91.10
2018-07-17T04:50:16.956Z,91.00
2018-07-17T04:52:45.914Z,91.00
2018-07-17T04:55:15.346Z,90.90
2018-07-17T04:57:44.960Z,90.70
2018-07-17T05:00:14.056Z,90.70
2018-07-17T05:02:43.280Z,90.60
2018-07-17T05:05:12.220Z,90.50
2018-07-17T05:07:40.997Z,90.60
2018-07-17T05:10:10.129Z,90.70
2018-07-17T05:12:39.194Z,90.80
2018-07-17T05:15:08.319Z,90.60
2018-07-17T05:17:37.252Z,90.60
2018-07-17T05:20:06.640Z,90.90
2018-07-17T05:22:35.514Z,90.80
2018-07-17T05:25:04.787Z,90.70
2018-07-17T05:27:33.885Z,91.00
2018-07-17T05:30:02.821Z,90.80
2018-07-17T05:32:31.714Z,90.70
2018-07-17T05:35:00.545Z,90.50
2018-07-17T05:37:29.536Z,90.50
2018-07-17T05:39:58.435Z,90.50
2018-07-17T05:42:27.385Z,90.30
2018-07-17T05:44:56.341Z,90.60
2018-07-17T05:47:25.205Z,90.30
2018-07-17T05:49:54.224Z,90.40
2018-07-17T05:52:23.245Z,90.00
2018-07-17T05:54:52.308Z,89.50
2018-07-17T05:57:21.138Z,88.90
2018-07-17T05:59:50.194Z,89.90
2018-07-17T06:02:19.287Z,89.30
2018-07-17T06:04:48.338Z,88.30
2018-07-17T06:07:18.503Z,88.00
2018-07-17T06:09:47.429Z,88.20
2018-07-17T06:12:16.359Z,87.70
2018-07-17T06:14:45.689Z,86.90
2018-07-17T06:17:14.895Z,85.80
2018-07-17T06:20:17.445Z,82.90
2018-07-17T06:22:46.081Z,83.90
2018-07-17T06:25:14.880Z,84.70
2018-07-17T06:27:54.058Z,85.00
2018-07-17T06:30:22.961Z,84.70
2018-07-17T06:33:03.480Z,84.40
2018-07-17T06:35:44.682Z,83.70
2018-07-17T06:38:13.901Z,82.80
2018-07-17T06:40:43.777Z,81.00
2018-07-17T06:43:12.986Z,81.20
2018-07-17T06:45:41.905Z,81.40
2018-07-17T06:48:11.136Z,81.30
2018-07-17T06:50:40.188Z,81.40
2018-07-17T06:53:09.973Z,81.80
2018-07-17T06:55:39.005Z,81.60
2018-07-17T06:58:08.150Z,82.80
2018-07-17T07:00:45.146Z,82.00
2018-07-17T07:04:01.793Z,78.90
2018-07-17T07:06:30.991Z,78.60
2018-07-17T07:09:00.179Z,79.00
2018-07-17T07:11:29.098Z,77.70
2018-07-17T07:13:58.231Z,77.70
2018-07-17T07:16:27.472Z,75.40
2018-07-17T07:18:56.312Z,76.20
2018-07-17T07:21:25.395Z,75.50
2018-07-17T07:23:54.423Z,76.40
2018-07-17T07:26:23.184Z,76.50
2018-07-17T07:28:52.077Z,75.00
2018-07-17T07:31:21.422Z,74.90
2018-07-17T07:33:50.942Z,73.20
2018-07-17T07:36:20.119Z,74.30
2018-07-17T07:38:49.129Z,72.10
2018-07-17T07:41:18.316Z,69.70
2018-07-17T07:43:47.524Z,67.90
2018-07-17T07:46:16.462Z,69.60
2018-07-17T07:48:45.488Z,69.80
2018-07-17T07:51:14.604Z,67.20
2018-07-17T07:53:43.640Z,67.40
2018-07-17T07:56:12.672Z,66.20
2018-07-17T07:58:41.583Z,65.90
2018-07-17T08:01:14.698Z,64.70
2018-07-17T08:03:43.781Z,64.50
2018-07-17T08:06:12.752Z,62.30
2018-07-17T08:08:41.619Z,55.60
2018-07-17T08:11:10.186Z,57.50
2018-07-17T08:13:38.723Z,56.90
2018-07-17T08:16:07.480Z,54.50
2018-07-17T08:18:36.191Z,54.30
2018-07-17T08:21:04.877Z,54.20
2018-07-17T08:23:33.853Z,50.90
2018-07-17T08:28:35.815Z,52.70
2018-07-17T08:31:04.674Z,52.20
2018-07-17T08:33:33.711Z,50.90
2018-07-17T08:36:02.417Z,51.80
2018-07-17T08:38:31.113Z,48.70
2018-07-17T08:41:01.020Z,50.20
2018-07-17T08:43:29.935Z,48.60
2018-07-17T08:45:58.820Z,51.10
2018-07-17T08:48:27.894Z,50.90
2018-07-17T08:51:00.316Z,47.90
2018-07-17T08:53:34.777Z,48.40
2018-07-17T08:56:03.506Z,48.50
2018-07-17T08:58:32.635Z,49.80
2018-07-17T09:01:03.918Z,49.70
2018-07-17T09:03:34.497Z,51.00
2018-07-17T09:06:04.286Z,49.80
2018-07-17T09:08:33.217Z,50.20
2018-07-17T09:11:15.234Z,51.70
2018-07-17T09:16:16.707Z,51.90
2018-07-17T09:18:45.328Z,51.80
2018-07-17T09:21:36.985Z,51.10
2018-07-17T09:24:06.166Z,50.30
2018-07-17T09:26:35.054Z,47.70
2018-07-17T09:29:07.670Z,46.60
2018-07-17T09:31:36.410Z,46.80
2018-07-17T09:34:05.093Z,47.40
2018-07-17T09:36:40.057Z,44.10
2018-07-17T09:39:09.430Z,44.80
2018-07-17T09:41:38.069Z,45.70
2018-07-17T09:44:06.791Z,45.60
2018-07-17T09:46:35.305Z,44.60
2018-07-17T09:49:04.142Z,43.80
2018-07-17T09:51:33.240Z,45.30
2018-07-17T09:54:05.546Z,44.90
2018-07-17T09:56:34.606Z,45.70
2018-07-17T09:59:03.443Z,47.00
2018-07-17T10:01:38.356Z,45.60
2018-07-17T10:04:07.112Z,46.90
2018-07-17T10:06:36.224Z,48.10
2018-07-17T10:09:06.474Z,47.40
2018-07-17T10:11:35.405Z,47.20
2018-07-17T10:14:04.722Z,45.20
2018-07-17T10:16:33.568Z,46.10
2018-07-17T10:19:02.609Z,45.50
2018-07-17T10:21:32.003Z,45.60
2018-07-17T10:24:04.602Z,44.90
2018-07-17T10:26:34.160Z,44.80
2018-07-17T10:29:03.360Z,46.10
2018-07-17T10:31:32.628Z,46.80
2018-07-17T10:34:01.992Z,47.70
2018-07-17T10:36:31.352Z,47.40
2018-07-17T10:39:01.768Z,44.20
2018-07-17T10:55:43.713Z,44.40
2018-07-17T10:58:12.548Z,44.70
2018-07-17T11:00:42.827Z,48.70
2018-07-17T11:03:11.544Z,50.00
2018-07-17T11:05:45.011Z,51.30
2018-07-17T11:08:13.867Z,52.90
2018-07-17T11:10:47.295Z,53.40
2018-07-17T11:13:18.044Z,52.50
2018-07-17T11:15:47.060Z,51.50
2018-07-17T11:22:09.373Z,52.90
2018-07-17T11:24:48.192Z,52.10
2018-07-17T11:27:32.088Z,50.30
2018-07-17T11:30:08.565Z,52.20
2018-07-17T11:32:41.394Z,51.30
2018-07-17T11:35:09.968Z,48.40
2018-07-17T11:37:44.769Z,46.10
2018-07-17T11:40:15.025Z,44.00
2018-07-17T11:42:48.600Z,46.20
2018-07-17T11:45:17.902Z,44.20
2018-07-17T11:47:47.187Z,46.80
2018-07-17T11:50:18.588Z,49.70
2018-07-17T11:52:48.526Z,51.70
2018-07-17T11:56:07.603Z,51.50
2018-07-17T11:58:37.519Z,53.70
2018-07-17T12:01:06.580Z,56.40
2018-07-17T12:03:45.581Z,58.20
2018-07-17T12:06:14.159Z,59.90
2018-07-17T12:13:40.191Z,60.20
2018-07-17T12:16:08.808Z,60.20
2018-07-17T12:18:37.337Z,60.60
2018-07-17T12:21:11.162Z,59.70
2018-07-17T12:23:39.814Z,57.30
2018-07-17T12:26:08.354Z,57.10
2018-07-17T12:28:37.356Z,57.90
2018-07-17T12:31:06.505Z,56.50
2018-07-17T12:33:36.793Z,58.10
2018-07-17T12:36:05.750Z,58.30
2018-07-17T12:38:35.217Z,56.00
2018-07-17T12:41:03.660Z,55.70
2018-07-17T12:43:32.667Z,55.70
2018-07-17T12:46:04.120Z,53.90
2018-07-17T12:48:39.257Z,53.20
2018-07-17T12:51:08.659Z,54.20
2018-07-17T12:58:28.539Z,52.70
2018-07-17T13:00:57.915Z,54.20
2018-07-17T13:08:22.030Z,55.60
2018-07-17T13:10:58.966Z,57.70
2018-07-17T13:13:27.424Z,58.20
2018-07-17T13:15:56.214Z,56.80
2018-07-17T13:18:24.782Z,57.50
2018-07-17T13:20:53.232Z,58.90
2018-07-17T13:23:22.873Z,59.50
2018-07-17T13:25:51.611Z,60.10
2018-07-17T13:28:21.752Z,61.60
2018-07-17T13:31:02.373Z,61.60
2018-07-17T13:33:31.479Z,63.00
2018-07-17T13:36:00.196Z,68.80
2018-07-17T13:38:28.832Z,73.40
2018-07-17T13:40:57.496Z,73.40
2018-07-17T13:43:26.183Z,73.40
2018-07-17T13:48:23.121Z,75.50
2018-07-17T13:50:51.862Z,75.50
2018-07-17T13:53:20.429Z,75.90
2018-07-17T13:55:49.044Z,76.40
2018-07-17T13:58:18.026Z,76.00
2018-07-17T14:00:47.103Z,77.30
2018-07-17T14:03:16.077Z,76.50
2018-07-17T14:05:45.261Z,78.60
2018-07-17T14:08:14.076Z,81.20
2018-07-17T14:13:22.530Z,82.20
2018-07-17T14:15:52.875Z,84.10
2018-07-17T14:18:21.322Z,84.80
2018-07-17T14:20:49.946Z,85.90
2018-07-17T14:23:19.250Z,87.90
2018-07-17T14:25:47.719Z,86.30
2018-07-17T14:28:16.337Z,86.70
2018-07-17T14:33:21.027Z,88.50
2018-07-17T14:35:50.050Z,87.60
2018-07-17T14:38:19.117Z,86.90
2018-07-17T14:40:51.641Z,87.80
2018-07-17T14:43:20.508Z,89.20
2018-07-17T14:45:49.308Z,86.10
2018-07-17T14:48:18.228Z,86.90
2018-07-17T14:50:47.231Z,86.20
2018-07-17T14:53:15.853Z,85.70
2018-07-17T14:55:47.766Z,85.80
2018-07-17T14:58:16.562Z,83.40
2018-07-17T15:00:45.430Z,81.80
2018-07-17T15:03:14.134Z,82.80
2018-07-17T15:05:46.919Z,81.60
2018-07-17T15:08:15.351Z,80.80
2018-07-17T15:10:51.430Z,80.70
2018-07-17T15:13:22.631Z,80.20
2018-07-17T15:15:51.316Z,79.60
2018-07-17T15:18:20.434Z,78.70
2018-07-17T15:20:49.178Z,77.00
2018-07-17T15:23:17.896Z,77.20
2018-07-17T15:25:46.416Z,76.90
2018-07-17T15:28:15.123Z,76.70
2018-07-17T15:30:43.510Z,76.30
2018-07-17T15:33:12.139Z,77.20
2018-07-17T15:35:40.746Z,76.60
2018-07-17T15:38:09.395Z,76.80
2018-07-17T15:40:38.156Z,75.30
2018-07-17T15:45:35.828Z,77.40
2018-07-17T15:48:04.389Z,76.90
2018-07-17T15:50:33.021Z,75.70
2018-07-17T15:53:01.639Z,75.40
2018-07-17T15:55:30.298Z,73.20
2018-07-17T15:57:58.982Z,73.80
2018-07-17T16:00:27.707Z,71.10
2018-07-17T16:02:56.238Z,71.80
2018-07-17T16:05:24.895Z,72.20
2018-07-17T16:07:53.459Z,70.60
2018-07-17T16:10:22.273Z,71.30
2018-07-17T16:12:50.912Z,70.30
2018-07-17T16:15:20.734Z,69.20
2018-07-17T16:17:49.359Z,69.60
2018-07-17T16:20:18.288Z,68.40
2018-07-17T16:22:47.012Z,69.10
2018-07-17T16:25:15.782Z,67.50
2018-07-17T16:27:44.553Z,67.10
2018-07-17T16:30:14.062Z,68.10
2018-07-17T16:32:42.931Z,66.70
2018-07-17T16:35:11.697Z,67.00
2018-07-17T16:37:40.712Z,66.10
2018-07-17T16:40:09.856Z,66.90
2018-07-17T16:42:38.622Z,67.50
2018-07-17T16:45:07.610Z,65.50
2018-07-17T16:47:36.313Z,64.00
2018-07-17T16:50:05.181Z,62.50
2018-07-17T16:52:41.166Z,64.70
2018-07-17T16:55:10.022Z,63.90
2018-07-17T16:57:38.940Z,64.80
2018-07-17T17:00:07.853Z,62.70
2018-07-17T17:02:36.693Z,63.60
2018-07-17T17:05:12.613Z,61.80
2018-07-17T17:07:42.708Z,61.80
2018-07-17T17:10:11.524Z,61.10
2018-07-17T17:12:40.350Z,61.20
2018-07-17T17:15:09.170Z,61.50
2018-07-17T17:17:37.884Z,60.60
2018-07-17T17:20:06.739Z,61.30
2018-07-17T17:22:35.416Z,61.70
2018-07-17T17:25:03.971Z,61.30
2018-07-17T17:27:32.555Z,60.60
2018-07-17T17:30:01.216Z,61.10
2018-07-17T17:32:30.039Z,60.50
2018-07-17T17:34:58.987Z,60.70
2018-07-17T17:37:27.727Z,61.80
2018-07-17T17:39:56.533Z,61.70
2018-07-17T17:42:30.405Z,61.70
2018-07-17T17:45:02.782Z,61.80
2018-07-17T17:47:31.649Z,61.40
2018-07-17T17:50:00.272Z,62.10
2018-07-17T17:52:29.137Z,59.80
2018-07-17T17:54:58.032Z,60.20
2018-07-17T17:57:26.799Z,59.90
2018-07-17T17:59:55.538Z,59.90
2018-07-17T18:02:40.554Z,63.50
2018-07-17T18:05:12.600Z,65.20
2018-07-17T18:07:43.166Z,64.50
2018-07-17T18:10:11.870Z,64.40
2018-07-17T18:12:40.669Z,65.30
2018-07-17T18:15:09.455Z,65.50
2018-07-17T18:17:50.414Z,65.50
2018-07-17T18:23:38.055Z,66.00
2018-07-17T18:26:14.068Z,66.40
2018-07-17T18:28:42.542Z,64.80
2018-07-17T18:31:17.221Z,64.30
2018-07-17T18:33:46.043Z,64.20
2018-07-17T18:36:14.934Z,63.60
2018-07-17T18:38:43.693Z,63.50
2018-07-17T18:41:12.472Z,62.80
2018-07-17T18:43:41.114Z,63.50
2018-07-17T18:46:09.819Z,63.50
2018-07-17T18:48:40.030Z,63.40
2018-07-17T18:51:08.695Z,64.70
2018-07-17T18:53:37.469Z,65.90
2018-07-17T18:56:06.554Z,64.90
2018-07-17T18:58:35.417Z,64.70
2018-07-17T19:01:04.280Z,65.80
2018-07-17T19:03:34.178Z,67.30
2018-07-17T19:06:03.896Z,68.80
2018-07-17T19:08:32.409Z,67.90
2018-07-17T19:11:01.346Z,68.50
2018-07-17T19:13:29.923Z,68.90
2018-07-17T19:15:58.546Z,68.20
2018-07-17T19:18:27.052Z,68.80
2018-07-17T19:20:57.098Z,71.20
2018-07-17T19:23:25.775Z,69.90
2018-07-17T19:25:54.450Z,69.80
2018-07-17T19:28:23.124Z,70.40
2018-07-17T19:30:51.931Z,69.90
2018-07-17T19:33:20.536Z,71.00
2018-07-17T19:35:49.043Z,70.30
2018-07-17T19:38:17.614Z,71.70
2018-07-17T19:40:46.292Z,71.30
2018-07-17T19:43:14.700Z,70.80
2018-07-17T19:45:43.166Z,71.00
2018-07-17T19:48:11.788Z,71.40
2018-07-17T19:50:41.270Z,70.40
2018-07-17T19:53:13.401Z,70.60
2018-07-17T19:55:42.006Z,71.30
2018-07-17T19:58:10.540Z,70.80
2018-07-17T20:00:39.303Z,71.00
2018-07-17T20:03:07.861Z,70.10
2018-07-17T20:05:36.304Z,71.30
2018-07-17T20:08:05.519Z,71.80
2018-07-17T20:10:34.150Z,71.50
2018-07-17T20:13:02.672Z,72.80
2018-07-17T20:15:31.194Z,73.70
2018-07-17T20:17:59.688Z,74.10
2018-07-17T20:20:28.202Z,73.90
2018-07-17T20:22:56.838Z,74.80
2018-07-17T20:25:25.350Z,74.10
2018-07-17T20:27:53.818Z,73.70
2018-07-17T20:30:22.278Z,73.80
2018-07-17T20:32:50.713Z,73.90
2018-07-17T20:35:19.285Z,73.90
2018-07-17T20:37:47.857Z,74.60
2018-07-17T20:40:16.362Z,74.60
2018-07-17T20:42:45.099Z,74.60
2018-07-17T20:45:13.599Z,75.40
2018-07-17T20:47:42.101Z,74.30
2018-07-17T20:50:10.836Z,74.50
2018-07-17T20:52:39.416Z,74.50
2018-07-17T20:55:07.843Z,74.10
2018-07-17T20:57:36.908Z,75.10
2018-07-17T21:00:05.888Z,74.60
2018-07-17T21:02:34.391Z,74.60
2018-07-17T21:05:03.119Z,74.60
2018-07-17T21:07:31.691Z,76.10
2018-07-17T21:10:00.181Z,75.20
2018-07-17T21:12:28.746Z,76.20
2018-07-17T21:14:57.436Z,75.30
2018-07-17T21:17:25.956Z,75.90
2018-07-17T21:19:54.503Z,76.10
2018-07-17T21:22:22.977Z,76.10
2018-07-17T21:24:51.598Z,76.50
2018-07-17T21:27:20.124Z,77.00
2018-07-17T21:29:48.603Z,77.20
2018-07-17T21:32:17.048Z,78.60
2018-07-17T21:34:45.596Z,77.70
2018-07-17T21:37:14.036Z,77.50
2018-07-17T21:39:43.013Z,78.40
2018-07-17T21:42:11.656Z,79.30
2018-07-17T21:44:40.265Z,78.80
2018-07-17T21:47:08.952Z,78.60
2018-07-17T21:49:38.472Z,78.60
2018-07-17T21:52:08.351Z,78.80
2018-07-17T21:54:36.878Z,79.10
2018-07-17T21:57:07.539Z,79.80
2018-07-17T21:59:38.024Z,79.60
2018-07-17T22:02:06.667Z,80.10
2018-07-17T22:04:35.175Z,80.60
2018-07-17T22:07:03.715Z,80.40
2018-07-17T22:09:32.283Z,80.80
2018-07-17T22:12:00.772Z,80.10
2018-07-17T22:14:29.335Z,81.50
2018-07-17T22:16:57.883Z,80.90
2018-07-17T22:19:26.398Z,80.90
2018-07-17T22:21:55.007Z,80.70
2018-07-17T22:24:23.606Z,81.00
2018-07-17T22:26:52.178Z,82.40
2018-07-17T22:29:20.854Z,82.10
2018-07-17T22:31:49.347Z,82.40
2018-07-17T22:34:17.798Z,82.80
2018-07-17T22:36:46.290Z,82.90
2018-07-17T22:39:14.770Z,83.20
2018-07-17T22:41:43.233Z,83.30
2018-07-17T22:44:11.805Z,84.10
2018-07-17T22:46:40.274Z,84.10
2018-07-17T22:49:08.746Z,84.20
2018-07-17T22:51:37.382Z,84.50
2018-07-17T22:56:34.254Z,84.40
2018-07-17T22:59:02.810Z,85.50
2018-07-17T23:01:31.309Z,85.00
2018-07-17T23:03:59.834Z,85.10
2018-07-17T23:06:28.317Z,85.30
2018-07-17T23:08:56.806Z,84.60
2018-07-17T23:11:25.314Z,86.10
2018-07-17T23:13:53.866Z,85.00
2018-07-17T23:16:22.385Z,86.00
2018-07-17T23:18:50.866Z,85.60
2018-07-17T23:21:19.331Z,86.30
2018-07-17T23:23:47.877Z,86.20
2018-07-17T23:26:16.369Z,86.40
2018-07-17T23:28:44.954Z,87.20
2018-07-17T23:31:13.822Z,86.30
2018-07-17T23:33:42.298Z,86.50
2018-07-17T23:36:10.776Z,86.90
2018-07-17T23:38:39.239Z,87.70
2018-07-17T23:41:07.730Z,87.50
2018-07-17T23:43:36.199Z,88.90
2018-07-17T23:46:04.795Z,88.30
2018-07-17T23:48:33.254Z,88.20
2018-07-17T23:51:01.713Z,88.20
2018-07-17T23:53:30.219Z,88.30
2018-07-17T23:55:58.691Z,88.30
2018-07-17T23:58:27.163Z,88.50
